Time;durP1;ratioP1;P1;durP2;ratioP2;P2;SDS_P1;SDS_P2;PMS_P1;PMS_P2;Temp;Humidity;BMP_temperature;BMP_pressure;BME280_temperature;BME280_humidity;BME280_pressure;Samples;Min_cycle;Max_cycle;Signal;HPM_P1;HPM_P2
2021/11/22 00:00:16;;;;;;;26.27;17.63;;;;;;;;;;4927524;28;20035;-86
2021/11/22 00:02:44;;;;;;;20.25;13.30;;;;;;;;;;4931600;28;20042;-85
2021/11/22 00:05:11;;;;;;;27.73;15.93;;;;;;;;;;4920821;28;20584;-85
2021/11/22 00:07:39;;;;;;;24.30;14.32;;;;;;;;;;4927633;28;20051;-85
2021/11/22 00:10:08;;;;;;;24.10;13.52;;;;;;;;;;4917521;29;20043;-85
2021/11/22 00:12:39;;;;;;;19.52;11.80;;;;;;;;;;4929440;28;20062;-84
2021/11/22 00:15:11;;;;;;;20.38;11.90;;;;;;;;;;4933933;28;20027;-82
2021/11/22 00:17:40;;;;;;;19.63;10.35;;;;;;;;;;4919526;28;20131;-84
2021/11/22 00:20:10;;;;;;;16.55;9.45;;;;;;;;;;4932800;28;20039;-84
2021/11/22 00:22:37;;;;;;;17.10;8.50;;;;;;;;;;4931639;28;20035;-85
2021/11/22 00:46:31;;;;;;;12.70;5.88;;;;;;;;;;4921808;28;20074;-84
2021/11/22 00:49:00;;;;;;;10.02;4.20;;;;;;;;;;4915098;28;20035;-84
2021/11/22 00:51:27;;;;;;;10.90;4.15;;;;;;;;;;4906508;28;20065;-84
2021/11/22 00:53:55;;;;;;;14.50;5.03;;;;;;;;;;4935821;28;20046;-85
2021/11/22 00:56:24;;;;;;;14.52;4.43;;;;;;;;;;4934266;28;20035;-85
2021/11/22 00:58:51;;;;;;;13.23;4.20;;;;;;;;;;4916957;28;20036;-85
2021/11/22 01:01:17;;;;;;;13.70;5.35;;;;;;;;;;4915223;28;20046;-85
2021/11/22 01:03:44;;;;;;;14.55;5.75;;;;;;;;;;4934952;28;20039;-84
2021/11/22 01:06:13;;;;;;;13.73;5.85;;;;;;;;;;4925481;28;20479;-85
2021/11/22 01:08:42;;;;;;;10.95;5.50;;;;;;;;;;4909093;29;20489;-85
2021/11/22 01:11:11;;;;;;;13.00;6.35;;;;;;;;;;4926585;28;20046;-84
2021/11/22 01:13:40;;;;;;;14.00;6.53;;;;;;;;;;4939778;28;20043;-84
2021/11/22 01:16:09;;;;;;;15.07;7.32;;;;;;;;;;4928768;29;20050;-84
2021/11/22 01:18:36;;;;;;;12.02;5.90;;;;;;;;;;4926605;28;20043;-84
2021/11/22 01:21:06;;;;;;;12.68;5.13;;;;;;;;;;4942150;28;20471;-84
2021/11/22 01:23:34;;;;;;;11.23;4.50;;;;;;;;;;4925265;28;20047;-85
2021/11/22 01:26:02;;;;;;;13.57;4.18;;;;;;;;;;4930192;28;20070;-85
2021/11/22 01:28:31;;;;;;;10.63;4.15;;;;;;;;;;4940539;28;20035;-85
2021/11/22 01:31:00;;;;;;;11.15;4.53;;;;;;;;;;4924964;28;20149;-85
2021/11/22 01:33:26;;;;;;;11.70;4.20;;;;;;;;;;4927754;28;20062;-85
2021/11/22 01:35:53;;;;;;;14.55;6.88;;;;;;;;;;4930566;28;20019;-85
2021/11/22 01:38:19;;;;;;;;;;;;;;;;;;4952873;28;20028;-85
2021/11/22 01:40:46;;;;;;;12.65;5.28;;;;;;;;;;4921003;28;19922;-85
2021/11/22 01:43:14;;;;;;;12.68;4.75;;;;;;;;;;4938446;28;20066;-85
2021/11/22 01:45:42;;;;;;;12.10;4.38;;;;;;;;;;4947955;28;20043;-84
2021/11/22 01:48:08;;;;;;;15.45;6.18;;;;;;;;;;4928239;28;20178;-84
2021/11/22 01:50:36;;;;;;;13.57;5.30;;;;;;;;;;4928460;28;20152;-85
2021/11/22 01:53:03;;;;;;;10.98;4.00;;;;;;;;;;4941152;28;20055;-85
2021/11/22 01:55:31;;;;;;;9.68;3.70;;;;;;;;;;4924072;28;20039;-85
2021/11/22 01:57:59;;;;;;;12.65;3.72;;;;;;;;;;4937052;28;20059;-84
2021/11/22 02:00:32;;;;;;;11.13;3.45;;;;;;;;;;4938956;28;20913;-84
2021/11/22 02:03:02;;;;;;;9.50;3.80;;;;;;;;;;4923688;28;20617;-85
2021/11/22 02:05:31;;;;;;;12.85;3.78;;;;;;;;;;4923583;28;20039;-85
2021/11/22 02:07:58;;;;;;;11.10;3.80;;;;;;;;;;4911044;28;20119;-85
2021/11/22 02:10:27;;;;;;;10.25;3.60;;;;;;;;;;4944847;28;20504;-84
2021/11/22 02:12:54;;;;;;;11.65;4.45;;;;;;;;;;4927216;29;20087;-84
2021/11/22 02:15:23;;;;;;;10.63;4.30;;;;;;;;;;4940441;28;20035;-85
2021/11/22 02:17:52;;;;;;;9.02;3.35;;;;;;;;;;4924795;29;20054;-84
2021/11/22 02:20:31;;;;;;;10.80;3.88;;;;;;;;;;4925820;28;20154;-85
2021/11/22 02:23:01;;;;;;;13.50;5.50;;;;;;;;;;4943434;28;20110;-85
2021/11/22 02:25:29;;;;;;;11.68;4.13;;;;;;;;;;4941041;28;20035;-85
2021/11/22 02:27:57;;;;;;;12.25;4.43;;;;;;;;;;4936851;28;20043;-84
2021/11/22 02:30:33;;;;;;;11.27;5.05;;;;;;;;;;4926907;28;20077;-84
2021/11/22 02:33:00;;;;;;;12.02;4.50;;;;;;;;;;4908691;29;20041;-84
2021/11/22 02:35:49;;;;;;;10.43;3.50;;;;;;;;;;4930314;28;20051;-84
2021/11/22 02:38:18;;;;;;;9.23;3.17;;;;;;;;;;4882991;29;20037;-84
2021/11/22 02:40:45;;;;;;;10.45;3.28;;;;;;;;;;4864409;29;20047;-85
2021/11/22 02:43:14;;;;;;;8.30;3.15;;;;;;;;;;4872383;29;20069;-84
2021/11/22 02:45:41;;;;;;;10.23;3.42;;;;;;;;;;4881049;29;20041;-84
2021/11/22 02:48:09;;;;;;;9.77;3.88;;;;;;;;;;4882642;29;20109;-84
2021/11/22 02:50:37;;;;;;;10.05;4.30;;;;;;;;;;4886751;29;20028;-85
2021/11/22 02:53:03;;;;;;;12.88;4.38;;;;;;;;;;4862198;29;20122;-84
2021/11/22 02:55:30;;;;;;;9.45;3.17;;;;;;;;;;4882486;29;20068;-83
2021/11/22 02:57:58;;;;;;;10.13;2.97;;;;;;;;;;4869974;29;20533;-84
2021/11/22 03:00:31;;;;;;;10.60;2.78;;;;;;;;;;4864827;29;20525;-84
2021/11/22 03:03:00;;;;;;;9.63;2.67;;;;;;;;;;4884887;29;20032;-83
2021/11/22 03:05:29;;;;;;;7.63;2.75;;;;;;;;;;4881257;29;20067;-85
2021/11/22 03:08:01;;;;;;;7.45;3.05;;;;;;;;;;4880547;29;20208;-85
2021/11/22 03:10:29;;;;;;;8.77;2.70;;;;;;;;;;4880140;29;20059;-86
2021/11/22 03:12:59;;;;;;;10.00;3.35;;;;;;;;;;4878142;29;20070;-83
2021/11/22 03:15:26;;;;;;;11.55;3.67;;;;;;;;;;4848844;29;20043;-84
2021/11/22 03:17:54;;;;;;;9.35;3.10;;;;;;;;;;4880140;29;20036;-84
2021/11/22 03:20:22;;;;;;;11.00;2.97;;;;;;;;;;4864984;29;20108;-84
2021/11/22 03:22:50;;;;;;;8.18;2.60;;;;;;;;;;4923492;28;20139;-83
2021/11/22 03:25:22;;;;;;;10.07;2.75;;;;;;;;;;4920700;28;20114;-83
2021/11/22 03:27:49;;;;;;;7.72;2.40;;;;;;;;;;4935027;28;20253;-84
2021/11/22 03:30:17;;;;;;;8.50;2.25;;;;;;;;;;4939690;28;20042;-84
2021/11/22 03:32:45;;;;;;;9.35;2.60;;;;;;;;;;4937959;28;20024;-84
2021/11/22 03:35:14;;;;;;;10.32;2.30;;;;;;;;;;4937084;28;20078;-83
2021/11/22 03:37:45;;;;;;;8.90;3.13;;;;;;;;;;4939289;28;20058;-84
2021/11/22 03:40:23;;;;;;;8.32;2.55;;;;;;;;;;4933364;28;20063;-84
2021/11/22 03:45:36;;;;;;;8.73;2.35;;;;;;;;;;4932656;28;20043;-84
2021/11/22 03:48:03;;;;;;;7.50;2.30;;;;;;;;;;4900636;29;20040;-84
2021/11/22 03:50:30;;;;;;;7.70;2.25;;;;;;;;;;4905057;28;20082;-84
2021/11/22 03:52:57;;;;;;;8.65;2.25;;;;;;;;;;4936874;28;20038;-84
2021/11/22 03:55:26;;;;;;;8.13;2.58;;;;;;;;;;4908101;28;20046;-84
2021/11/22 03:57:54;;;;;;;10.32;2.58;;;;;;;;;;4933590;28;20063;-84
2021/11/22 04:00:24;;;;;;;9.40;2.08;;;;;;;;;;4922954;29;20039;-84
2021/11/22 04:02:56;;;;;;;8.80;2.00;;;;;;;;;;4922632;28;20106;-84
2021/11/22 04:05:23;;;;;;;9.57;2.45;;;;;;;;;;4918667;28;20130;-84
2021/11/22 04:07:51;;;;;;;8.63;2.55;;;;;;;;;;4926329;28;20043;-84
2021/11/22 04:10:20;;;;;;;6.28;2.28;;;;;;;;;;4936812;28;20035;-84
2021/11/22 04:12:49;;;;;;;5.95;1.90;;;;;;;;;;4935089;28;20046;-84
2021/11/22 04:15:16;;;;;;;7.35;2.20;;;;;;;;;;4944747;28;20400;-84
2021/11/22 04:17:42;;;;;;;;;;;;;;;;;;4939565;28;20033;-85
2021/11/22 04:20:11;;;;;;;9.35;2.03;;;;;;;;;;4933786;28;19922;-84
2021/11/22 04:22:38;;;;;;;6.57;1.80;;;;;;;;;;4925591;28;20130;-84
2021/11/22 04:25:04;;;;;;;;;;;;;;;;;;4921989;28;20031;-84
2021/11/22 04:27:31;;;;;;;7.55;1.73;;;;;;;;;;4939323;28;19922;-84
2021/11/22 04:29:58;;;;;;;8.95;2.08;;;;;;;;;;4919030;28;20090;-84
2021/11/22 04:32:29;;;;;;;8.60;2.13;;;;;;;;;;4934491;28;20085;-86
2021/11/22 04:34:58;;;;;;;8.02;2.03;;;;;;;;;;4938933;28;20066;-83
2021/11/22 04:37:28;;;;;;;6.82;2.10;;;;;;;;;;4938829;28;20035;-83
2021/11/22 04:39:55;;;;;;;8.27;2.13;;;;;;;;;;4923107;28;20047;-84
2021/11/22 04:42:22;;;;;;;6.78;2.15;;;;;;;;;;4921645;28;20651;-83
2021/11/22 04:44:50;;;;;;;6.97;2.03;;;;;;;;;;4924315;28;20122;-83
2021/11/22 04:47:20;;;;;;;7.22;2.42;;;;;;;;;;4901176;29;20114;-84
2021/11/22 04:49:50;;;;;;;8.52;2.38;;;;;;;;;;4900570;29;20048;-84
2021/11/22 04:52:18;;;;;;;8.30;2.33;;;;;;;;;;4896550;29;20040;-83
2021/11/22 04:54:46;;;;;;;8.20;2.35;;;;;;;;;;4888617;29;20130;-83
2021/11/22 04:57:13;;;;;;;8.10;2.30;;;;;;;;;;4884621;29;20040;-84
2021/11/22 04:59:41;;;;;;;8.10;2.20;;;;;;;;;;4902529;29;20032;-83
2021/11/22 05:02:09;;;;;;;7.05;2.30;;;;;;;;;;4883933;29;20044;-83
2021/11/22 05:04:42;;;;;;;8.68;2.30;;;;;;;;;;4885442;29;20107;-83
2021/11/22 05:07:10;;;;;;;8.48;2.10;;;;;;;;;;4868423;29;20045;-83
2021/11/22 05:09:39;;;;;;;9.30;2.60;;;;;;;;;;4847818;29;20062;-83
2021/11/22 05:12:05;;;;;;;6.40;2.20;;;;;;;;;;4847329;29;20048;-81
2021/11/22 05:14:32;;;;;;;8.77;2.30;;;;;;;;;;4853362;29;20029;-83
2021/11/22 05:16:58;;;;;;;;;;;;;;;;;;4836687;29;20072;-84
2021/11/22 05:19:30;;;;;;;8.77;2.07;;;;;;;;;;4845918;29;19935;-84
2021/11/22 05:21:57;;;;;;;9.43;2.42;;;;;;;;;;4832066;29;20033;-83
2021/11/22 05:24:27;;;;;;;11.68;2.40;;;;;;;;;;4846985;29;20045;-84
2021/11/22 05:26:56;;;;;;;6.78;2.17;;;;;;;;;;4832918;29;20052;-84
2021/11/22 05:29:26;;;;;;;9.38;2.70;;;;;;;;;;4850929;29;20037;-84
2021/11/22 05:31:54;;;;;;;8.80;2.53;;;;;;;;;;4827052;29;20033;-84
2021/11/22 05:34:21;;;;;;;11.02;2.53;;;;;;;;;;4861624;29;20070;-83
2021/11/22 05:36:49;;;;;;;8.00;2.10;;;;;;;;;;4850277;29;20120;-85
2021/11/22 05:39:17;;;;;;;8.85;2.20;;;;;;;;;;4850471;29;20055;-85
2021/11/22 05:41:45;;;;;;;7.68;2.50;;;;;;;;;;4871247;29;20033;-85
2021/11/22 05:44:12;;;;;;;9.90;3.42;;;;;;;;;;4851233;29;20041;-85
2021/11/22 05:46:39;;;;;;;10.35;3.72;;;;;;;;;;4887613;29;20231;-85
2021/11/22 05:49:09;;;;;;;11.55;3.80;;;;;;;;;;4902078;29;20047;-85
2021/11/22 05:51:39;;;;;;;10.77;4.28;;;;;;;;;;4905150;29;20110;-85
2021/11/22 05:54:08;;;;;;;10.60;4.30;;;;;;;;;;4906230;29;20126;-83
2021/11/22 05:56:35;;;;;;;8.43;3.20;;;;;;;;;;4896590;29;20120;-84
2021/11/22 05:59:02;;;;;;;11.93;4.05;;;;;;;;;;4896563;28;20789;-85
2021/11/22 06:01:31;;;;;;;11.95;4.82;;;;;;;;;;4934874;28;20161;-84
2021/11/22 06:03:59;;;;;;;10.90;4.22;;;;;;;;;;4926238;29;20051;-84
2021/11/22 06:06:26;;;;;;;10.93;4.85;;;;;;;;;;4943724;28;20058;-84
2021/11/22 06:08:53;;;;;;;16.13;4.97;;;;;;;;;;4925035;29;20035;-84
2021/11/22 06:11:20;;;;;;;11.32;4.75;;;;;;;;;;4938337;28;20043;-84
2021/11/22 06:13:49;;;;;;;9.90;4.03;;;;;;;;;;4938977;28;20040;-84
2021/11/22 06:16:16;;;;;;;10.35;4.30;;;;;;;;;;4923517;28;20034;-84
2021/11/22 06:18:44;;;;;;;9.95;3.25;;;;;;;;;;4922257;28;20046;-84
2021/11/22 06:21:17;;;;;;;14.52;4.05;;;;;;;;;;4917765;28;20023;-84
2021/11/22 06:23:44;;;;;;;7.47;3.08;;;;;;;;;;4929183;28;20043;-78
2021/11/22 06:26:13;;;;;;;12.23;3.75;;;;;;;;;;4920003;28;20098;-77
2021/11/22 06:28:43;;;;;;;10.73;4.78;;;;;;;;;;4919280;28;20621;-78
2021/11/22 06:31:11;;;;;;;11.68;4.85;;;;;;;;;;4916147;28;20050;-77
2021/11/22 06:33:39;;;;;;;11.48;4.13;;;;;;;;;;4934015;28;20063;-78
2021/11/22 06:36:07;;;;;;;13.70;5.00;;;;;;;;;;4918134;28;20027;-80
2021/11/22 06:38:34;;;;;;;14.02;4.57;;;;;;;;;;4934807;28;20034;-78
2021/11/22 06:41:01;;;;;;;13.60;4.03;;;;;;;;;;4922293;28;20073;-79
2021/11/22 06:43:31;;;;;;;12.10;3.80;;;;;;;;;;4929525;28;21113;-78
2021/11/22 06:45:59;;;;;;;8.95;3.40;;;;;;;;;;4903653;28;20036;-77
2021/11/22 06:48:31;;;;;;;10.60;3.35;;;;;;;;;;4909994;28;20919;-80
2021/11/22 06:51:04;;;;;;;8.43;2.95;;;;;;;;;;4930645;28;20036;-79
2021/11/22 06:53:31;;;;;;;9.30;3.00;;;;;;;;;;4931817;28;20570;-78
2021/11/22 06:56:02;;;;;;;8.48;2.85;;;;;;;;;;4917501;28;20454;-79
2021/11/22 06:58:30;;;;;;;7.78;2.92;;;;;;;;;;4912223;28;20099;-77
2021/11/22 07:01:02;;;;;;;10.55;3.72;;;;;;;;;;4914248;28;20035;-79
2021/11/22 07:03:30;;;;;;;10.85;4.25;;;;;;;;;;4916597;28;20043;-79
2021/11/22 07:05:57;;;;;;;12.18;4.57;;;;;;;;;;4919415;28;20367;-80
2021/11/22 07:08:26;;;;;;;14.02;5.22;;;;;;;;;;4933774;28;20516;-81
2021/11/22 07:10:53;;;;;;;12.40;5.63;;;;;;;;;;4917371;29;20035;-79
2021/11/22 07:13:20;;;;;;;12.80;5.35;;;;;;;;;;4922929;28;21453;-77
2021/11/22 07:15:49;;;;;;;12.98;4.50;;;;;;;;;;4933845;28;20923;-79
2021/11/22 07:18:17;;;;;;;16.80;4.60;;;;;;;;;;4928708;28;20034;-80
2021/11/22 07:20:47;;;;;;;14.25;3.88;;;;;;;;;;4931311;28;20043;-79
2021/11/22 07:23:21;;;;;;;11.07;3.78;;;;;;;;;;4916907;29;20935;-80
2021/11/22 07:25:49;;;;;;;11.40;3.17;;;;;;;;;;4916031;29;20147;-78
2021/11/22 07:28:15;;;;;;;8.45;2.67;;;;;;;;;;4921360;28;20086;-79
2021/11/22 07:30:47;;;;;;;8.55;2.70;;;;;;;;;;4928288;28;20042;-79
2021/11/22 07:33:14;;;;;;;8.85;2.92;;;;;;;;;;4932697;28;20033;-78
2021/11/22 07:35:42;;;;;;;10.60;3.92;;;;;;;;;;4929337;28;20427;-78
2021/11/22 07:38:08;;;;;;;10.40;3.50;;;;;;;;;;4931589;28;20066;-78
2021/11/22 07:40:35;;;;;;;8.93;2.83;;;;;;;;;;4914901;28;20043;-79
2021/11/22 07:43:03;;;;;;;11.52;3.10;;;;;;;;;;4899746;28;20039;-80
2021/11/22 07:45:32;;;;;;;10.52;3.53;;;;;;;;;;4921776;28;20039;-80
2021/11/22 07:48:00;;;;;;;11.38;3.50;;;;;;;;;;4934879;28;20175;-79
2021/11/22 07:50:29;;;;;;;8.40;2.83;;;;;;;;;;4930244;28;20063;-78
2021/11/22 07:52:57;;;;;;;7.25;2.75;;;;;;;;;;4913700;28;20148;-78
2021/11/22 07:55:25;;;;;;;9.20;3.00;;;;;;;;;;4899947;28;20035;-78
2021/11/22 07:57:52;;;;;;;12.75;3.20;;;;;;;;;;4915127;28;20098;-78
2021/11/22 08:00:22;;;;;;;9.60;3.17;;;;;;;;;;4900810;28;20040;-78
2021/11/22 08:02:49;;;;;;;9.20;2.83;;;;;;;;;;4918016;28;20038;-78
2021/11/22 08:05:16;;;;;;;8.25;2.95;;;;;;;;;;4929644;28;20986;-78
2021/11/22 08:07:44;;;;;;;9.55;2.42;;;;;;;;;;4901065;28;20039;-78
2021/11/22 08:10:25;;;;;;;12.07;2.90;;;;;;;;;;4922472;28;20027;-78
2021/11/22 08:13:03;;;;;;;8.35;2.50;;;;;;;;;;4933637;28;20134;-78
2021/11/22 08:15:31;;;;;;;6.28;1.92;;;;;;;;;;4929854;28;20035;-78
2021/11/22 08:18:00;;;;;;;7.53;2.05;;;;;;;;;;4933276;28;20043;-77
2021/11/22 08:20:29;;;;;;;7.50;2.05;;;;;;;;;;4929199;28;20046;-78
2021/11/22 08:22:56;;;;;;;8.07;2.30;;;;;;;;;;4914919;28;20042;-78
2021/11/22 08:25:27;;;;;;;12.20;3.33;;;;;;;;;;4918528;28;20199;-78
2021/11/22 08:27:57;;;;;;;10.05;3.47;;;;;;;;;;4913306;29;20040;-78
2021/11/22 08:30:30;;;;;;;8.65;2.47;;;;;;;;;;4930799;28;20035;-77
2021/11/22 08:32:57;;;;;;;14.18;3.28;;;;;;;;;;4929019;28;20035;-78
2021/11/22 08:35:25;;;;;;;14.57;3.75;;;;;;;;;;4913192;28;20035;-78
2021/11/22 08:37:54;;;;;;;10.57;3.35;;;;;;;;;;4916883;28;20905;-77
2021/11/22 08:40:21;;;;;;;10.50;3.55;;;;;;;;;;4929535;28;20036;-77
2021/11/22 08:42:52;;;;;;;13.85;4.22;;;;;;;;;;4914369;28;20063;-78
2021/11/22 08:45:21;;;;;;;12.70;5.05;;;;;;;;;;4932627;28;20031;-78
2021/11/22 08:47:47;;;;;;;13.00;5.90;;;;;;;;;;4930118;28;20050;-79
2021/11/22 08:50:16;;;;;;;13.68;5.68;;;;;;;;;;4905832;28;20067;-80
2021/11/22 08:52:45;;;;;;;14.25;5.60;;;;;;;;;;4880437;29;20035;-79
2021/11/22 08:55:15;;;;;;;10.98;5.18;;;;;;;;;;4888579;29;20040;-79
2021/11/22 08:57:43;;;;;;;11.88;4.90;;;;;;;;;;4895207;29;20099;-79
2021/11/22 09:00:15;;;;;;;10.10;4.13;;;;;;;;;;4877238;29;20393;-79
2021/11/22 09:02:43;;;;;;;13.98;3.30;;;;;;;;;;4877281;29;20024;-79
2021/11/22 09:05:10;;;;;;;9.23;2.80;;;;;;;;;;4895115;29;20060;-79
2021/11/22 09:07:38;;;;;;;8.52;2.63;;;;;;;;;;4881146;29;20040;-79
2021/11/22 09:10:07;;;;;;;8.23;2.33;;;;;;;;;;4893295;29;20896;-79
2021/11/22 09:12:33;;;;;;;9.45;2.17;;;;;;;;;;4881591;29;20035;-79
2021/11/22 09:15:01;;;;;;;6.90;2.15;;;;;;;;;;4891417;29;20127;-79
2021/11/22 09:17:29;;;;;;;8.23;2.03;;;;;;;;;;4899295;29;20048;-79
2021/11/22 09:19:56;;;;;;;10.20;2.42;;;;;;;;;;4877906;29;20095;-79
2021/11/22 09:22:24;;;;;;;9.13;2.88;;;;;;;;;;4877956;29;20189;-79
2021/11/22 09:24:53;;;;;;;9.60;2.97;;;;;;;;;;4876323;29;20094;-79
2021/11/22 09:27:21;;;;;;;10.35;3.20;;;;;;;;;;4887489;29;20067;-79
2021/11/22 09:29:48;;;;;;;10.15;2.83;;;;;;;;;;4891749;29;20782;-79
2021/11/22 09:32:16;;;;;;;11.95;3.45;;;;;;;;;;4881052;29;20399;-79
2021/11/22 09:34:43;;;;;;;9.95;3.10;;;;;;;;;;4879954;29;20044;-79
2021/11/22 09:37:12;;;;;;;9.82;2.70;;;;;;;;;;4921424;28;20162;-79
2021/11/22 09:39:39;;;;;;;9.55;2.90;;;;;;;;;;4917680;29;20499;-79
2021/11/22 09:42:08;;;;;;;10.45;2.63;;;;;;;;;;4917219;28;20034;-78
2021/11/22 09:44:36;;;;;;;9.88;2.53;;;;;;;;;;4933639;28;20035;-79
2021/11/22 09:47:04;;;;;;;9.15;2.63;;;;;;;;;;4915306;28;20066;-79
2021/11/22 09:49:33;;;;;;;9.75;2.70;;;;;;;;;;4918930;28;20051;-79
2021/11/22 09:52:01;;;;;;;7.63;2.47;;;;;;;;;;4921676;28;20047;-79
2021/11/22 09:54:30;;;;;;;10.75;3.10;;;;;;;;;;4934015;28;20043;-78
2021/11/22 09:56:56;;;;;;;12.25;2.70;;;;;;;;;;4917156;28;20047;-79
2021/11/22 09:59:25;;;;;;;9.20;2.97;;;;;;;;;;4918304;28;20050;-79
2021/11/22 10:01:54;;;;;;;10.60;3.45;;;;;;;;;;4920442;28;20047;-79
2021/11/22 10:04:22;;;;;;;12.93;4.35;;;;;;;;;;4932080;28;20039;-77
2021/11/22 10:07:00;;;;;;;10.20;3.90;;;;;;;;;;4900002;28;20202;-78
2021/11/22 10:09:39;;;;;;;13.05;5.15;;;;;;;;;;4902549;28;20094;-78
2021/11/22 10:12:12;;;;;;;13.32;5.30;;;;;;;;;;4935560;28;20027;-78
2021/11/22 10:14:39;;;;;;;13.85;5.85;;;;;;;;;;4919785;28;20046;-78
2021/11/22 10:17:26;;;;;;;13.02;5.22;;;;;;;;;;4934913;28;20070;-78
2021/11/22 10:20:09;;;;;;;12.10;3.90;;;;;;;;;;4933547;28;20106;-78
2021/11/22 10:23:12;;;;;;;10.07;3.80;;;;;;;;;;4933213;28;20077;-80
2021/11/22 10:25:40;;;;;;;9.05;3.40;;;;;;;;;;4935545;28;20154;-78
2021/11/22 10:28:10;;;;;;;8.75;2.47;;;;;;;;;;4915470;29;20083;-79
2021/11/22 10:30:40;;;;;;;9.95;2.42;;;;;;;;;;4920308;28;20035;-78
2021/11/22 10:33:10;;;;;;;10.23;2.10;;;;;;;;;;4915584;28;20558;-78
2021/11/22 10:35:38;;;;;;;7.80;2.10;;;;;;;;;;4914473;28;20015;-79
2021/11/22 10:38:17;;;;;;;9.38;2.30;;;;;;;;;;4919160;28;20051;-79
2021/11/22 10:40:50;;;;;;;8.13;2.00;;;;;;;;;;4929961;28;20122;-78
2021/11/22 10:43:17;;;;;;;10.43;2.28;;;;;;;;;;4900778;28;20079;-79
2021/11/22 10:45:53;;;;;;;8.25;2.17;;;;;;;;;;4936434;28;20259;-78
2021/11/22 10:48:27;;;;;;;8.30;2.00;;;;;;;;;;4931369;28;20023;-78
2021/11/22 10:51:12;;;;;;;8.30;2.35;;;;;;;;;;4932983;28;20129;-78
2021/11/22 10:54:11;;;;;;;9.07;2.50;;;;;;;;;;4933711;28;20070;-78
2021/11/22 10:56:42;;;;;;;10.05;2.60;;;;;;;;;;4873979;29;20048;-78
2021/11/22 10:59:16;;;;;;;9.20;2.30;;;;;;;;;;4860877;29;20053;-78
2021/11/22 11:01:53;;;;;;;10.57;2.90;;;;;;;;;;4878289;29;20123;-79
2021/11/22 11:04:31;;;;;;;9.07;2.67;;;;;;;;;;4855286;29;20587;-78
2021/11/22 11:06:59;;;;;;;9.98;2.80;;;;;;;;;;4875435;29;20033;-79
2021/11/22 11:09:52;;;;;;;9.88;3.20;;;;;;;;;;4864915;29;20473;-78
2021/11/22 11:12:24;;;;;;;10.18;2.67;;;;;;;;;;4855289;29;20036;-78
2021/11/22 11:14:56;;;;;;;10.70;2.85;;;;;;;;;;4875186;29;20167;-78
2021/11/22 11:17:34;;;;;;;8.25;1.88;;;;;;;;;;4859017;29;20044;-78
2021/11/22 11:20:07;;;;;;;8.65;1.90;;;;;;;;;;4873452;29;20143;-78
2021/11/22 11:22:35;;;;;;;11.38;2.85;;;;;;;;;;4878970;29;20041;-79
2021/11/22 11:25:04;;;;;;;8.07;2.20;;;;;;;;;;4873996;29;20868;-78
2021/11/22 11:27:31;;;;;;;7.10;2.35;;;;;;;;;;4871565;29;20053;-79
2021/11/22 11:29:59;;;;;;;8.25;2.22;;;;;;;;;;4860334;29;20041;-78
2021/11/22 11:32:30;;;;;;;7.95;2.50;;;;;;;;;;4886306;28;20043;-79
2021/11/22 11:34:58;;;;;;;9.50;3.03;;;;;;;;;;4931608;28;20042;-79
2021/11/22 11:37:45;;;;;;;9.32;2.50;;;;;;;;;;4914479;28;20035;-78
2021/11/22 11:40:28;;;;;;;8.20;2.50;;;;;;;;;;4916011;28;20043;-79
2021/11/22 11:42:57;;;;;;;8.13;2.78;;;;;;;;;;4934793;28;20670;-79
2021/11/22 11:45:33;;;;;;;8.52;1.88;;;;;;;;;;4936395;28;20027;-78
2021/11/22 11:48:05;;;;;;;9.82;2.47;;;;;;;;;;4933529;28;20074;-79
2021/11/22 11:50:35;;;;;;;8.02;2.20;;;;;;;;;;4912079;28;20044;-78
2021/11/22 11:53:13;;;;;;;7.55;2.10;;;;;;;;;;4932916;28;20050;-78
2021/11/22 11:55:42;;;;;;;8.85;2.55;;;;;;;;;;4932860;28;20652;-78
2021/11/22 11:58:25;;;;;;;10.32;2.20;;;;;;;;;;4918508;28;20049;-78
2021/11/22 12:00:53;;;;;;;9.05;2.90;;;;;;;;;;4931451;28;20031;-78
2021/11/22 12:03:21;;;;;;;8.95;2.78;;;;;;;;;;4934194;28;20042;-78
2021/11/22 12:05:54;;;;;;;11.13;2.83;;;;;;;;;;4916359;29;20035;-79
2021/11/22 12:08:29;;;;;;;9.90;3.25;;;;;;;;;;4929352;28;20039;-79
2021/11/22 12:11:02;;;;;;;9.65;3.35;;;;;;;;;;4926393;28;20064;-77
2021/11/22 12:13:49;;;;;;;10.43;3.60;;;;;;;;;;4934626;28;20106;-88
2021/11/22 12:16:34;;;;;;;8.05;2.72;;;;;;;;;;4940542;28;20055;-87
2021/11/22 12:19:20;;;;;;;6.00;1.92;;;;;;;;;;4944748;28;20036;-88
2021/11/22 12:21:47;;;;;;;9.05;2.67;;;;;;;;;;4936634;28;20031;-88
2021/11/22 12:24:15;;;;;;;11.82;2.55;;;;;;;;;;4925546;28;20035;-87
2021/11/22 12:26:42;;;;;;;11.20;2.20;;;;;;;;;;4921721;28;20039;-88
2021/11/22 12:29:12;;;;;;;9.27;2.28;;;;;;;;;;4935683;28;20040;-88
2021/11/22 12:31:49;;;;;;;7.45;2.22;;;;;;;;;;4933393;28;20046;-87
2021/11/22 12:34:17;;;;;;;7.57;2.13;;;;;;;;;;4906172;28;20047;-88
2021/11/22 12:36:49;;;;;;;9.10;2.65;;;;;;;;;;4920877;28;20114;-87
2021/11/22 12:39:20;;;;;;;7.28;2.20;;;;;;;;;;4936880;28;20059;-89
2021/11/22 12:41:50;;;;;;;7.75;2.25;;;;;;;;;;4917947;29;20035;-86
2021/11/22 12:44:22;;;;;;;9.80;2.42;;;;;;;;;;4917751;28;20086;-86
2021/11/22 12:46:57;;;;;;;8.73;2.38;;;;;;;;;;4922337;28;20036;-86
2021/11/22 12:49:31;;;;;;;8.23;2.50;;;;;;;;;;4928853;28;20039;-87
2021/11/22 12:52:17;;;;;;;7.80;2.13;;;;;;;;;;4919693;28;20240;-85
2021/11/22 12:54:58;;;;;;;8.25;3.08;;;;;;;;;;4925296;28;20035;-87
2021/11/22 12:57:43;;;;;;;9.68;3.13;;;;;;;;;;4928940;28;20038;-86
2021/11/22 13:00:13;;;;;;;9.68;3.03;;;;;;;;;;4918239;28;20201;-87
2021/11/22 13:02:42;;;;;;;7.57;2.70;;;;;;;;;;4915679;28;20040;-86
2021/11/22 13:05:09;;;;;;;7.78;2.35;;;;;;;;;;4924292;28;20498;-86
2021/11/22 13:07:36;;;;;;;10.75;3.20;;;;;;;;;;4937931;28;20041;-87
2021/11/22 13:10:04;;;;;;;10.30;3.22;;;;;;;;;;4933842;28;20035;-86
2021/11/22 13:12:45;;;;;;;8.40;3.25;;;;;;;;;;4931455;28;20122;-86
2021/11/22 13:15:21;;;;;;;11.52;3.65;;;;;;;;;;4927328;28;20494;-86
2021/11/22 13:17:51;;;;;;;11.60;4.30;;;;;;;;;;4933254;28;20027;-86
2021/11/22 13:20:21;;;;;;;10.85;4.05;;;;;;;;;;4930970;28;20114;-86
2021/11/22 13:22:51;;;;;;;11.65;4.28;;;;;;;;;;4925018;28;20040;-91
2021/11/22 13:25:25;;;;;;;10.85;3.83;;;;;;;;;;4921268;28;20059;-87
2021/11/22 13:28:14;;;;;;;11.43;4.18;;;;;;;;;;4922113;28;20036;-88
2021/11/22 13:30:45;;;;;;;19.00;11.07;;;;;;;;;;4926497;28;20047;-87
2021/11/22 13:33:12;;;;;;;16.65;10.02;;;;;;;;;;4918559;29;20027;-87
2021/11/22 13:35:43;;;;;;;13.52;6.75;;;;;;;;;;4926976;28;20058;-88
2021/11/22 13:38:20;;;;;;;13.88;6.63;;;;;;;;;;4932922;28;20039;-88
2021/11/22 13:40:52;;;;;;;12.23;5.30;;;;;;;;;;4926267;28;20036;-88
2021/11/22 13:43:22;;;;;;;13.65;5.82;;;;;;;;;;4874049;28;20038;-90
2021/11/22 13:46:01;;;;;;;13.43;5.05;;;;;;;;;;4925827;28;20047;-90
2021/11/22 13:48:48;;;;;;;15.43;5.13;;;;;;;;;;4933800;28;20046;-88
2021/11/22 13:51:16;;;;;;;10.05;3.75;;;;;;;;;;4924399;28;20046;-86
2021/11/22 13:53:44;;;;;;;12.45;4.30;;;;;;;;;;4920385;28;20046;-88
2021/11/22 13:56:23;;;;;;;10.27;4.72;;;;;;;;;;4938292;28;20058;-89
2021/11/22 13:58:53;;;;;;;16.85;9.40;;;;;;;;;;4937037;28;20098;-89
2021/11/22 14:01:21;;;;;;;14.23;6.53;;;;;;;;;;4918669;28;20490;-87
2021/11/22 14:03:54;;;;;;;12.77;5.93;;;;;;;;;;4921233;28;20105;-90
2021/11/22 14:06:24;;;;;;;13.35;4.85;;;;;;;;;;4937592;28;20142;-90
2021/11/22 14:08:53;;;;;;;13.90;6.70;;;;;;;;;;4929415;28;20514;-90
2021/11/22 14:11:22;;;;;;;13.57;6.75;;;;;;;;;;4939778;28;20046;-89
2021/11/22 14:13:53;;;;;;;12.48;5.35;;;;;;;;;;4941526;28;20147;-88
2021/11/22 14:16:29;;;;;;;12.32;5.43;;;;;;;;;;4907559;28;20126;-82
2021/11/22 14:18:59;;;;;;;10.32;3.42;;;;;;;;;;4902543;29;20046;-81
2021/11/22 14:21:42;;;;;;;10.25;4.03;;;;;;;;;;4904639;28;20150;-81
2021/11/22 14:24:34;;;;;;;10.60;4.25;;;;;;;;;;4924117;28;20034;-82
2021/11/22 14:27:04;;;;;;;10.05;3.65;;;;;;;;;;4914179;29;20039;-80
2021/11/22 14:29:32;;;;;;;11.60;3.42;;;;;;;;;;4931862;28;20035;-81
2021/11/22 14:32:08;;;;;;;12.27;4.63;;;;;;;;;;4935349;28;20556;-81
2021/11/22 14:34:37;;;;;;;12.65;5.07;;;;;;;;;;4927633;28;20417;-81
2021/11/22 14:37:18;;;;;;;11.38;4.70;;;;;;;;;;4922031;28;20047;-81
2021/11/22 14:39:46;;;;;;;14.15;5.80;;;;;;;;;;4933207;28;20036;-81
2021/11/22 14:42:18;;;;;;;13.23;5.45;;;;;;;;;;4914671;28;20292;-81
2021/11/22 14:44:59;;;;;;;11.10;4.30;;;;;;;;;;4935705;28;20031;-81
2021/11/22 14:47:40;;;;;;;12.60;4.75;;;;;;;;;;4919315;28;20058;-81
2021/11/22 14:50:27;;;;;;;14.55;4.82;;;;;;;;;;4918193;28;20047;-81
2021/11/22 14:53:07;;;;;;;14.20;3.97;;;;;;;;;;4930281;28;20040;-80
2021/11/22 14:55:35;;;;;;;14.15;3.85;;;;;;;;;;4935235;28;20062;-80
2021/11/22 14:58:03;;;;;;;12.15;4.00;;;;;;;;;;4913245;28;20031;-81
2021/11/22 15:00:40;;;;;;;13.45;4.90;;;;;;;;;;4917198;28;20046;-81
2021/11/22 15:03:25;;;;;;;15.35;5.00;;;;;;;;;;4917488;28;20027;-80
2021/11/22 15:05:55;;;;;;;14.40;5.68;;;;;;;;;;4918068;29;20097;-81
2021/11/22 15:08:26;;;;;;;15.25;5.70;;;;;;;;;;4928195;28;20035;-81
2021/11/22 15:10:55;;;;;;;15.07;5.20;;;;;;;;;;4907864;28;20762;-80
2021/11/22 15:13:21;;;;;;;14.65;5.88;;;;;;;;;;4932107;28;21701;-80
2021/11/22 15:15:49;;;;;;;14.55;5.50;;;;;;;;;;4929628;28;20189;-80
2021/11/22 15:18:19;;;;;;;14.73;6.05;;;;;;;;;;4915124;28;20498;-80